createdAt,value
2023-01-03T00:01:50.094Z,3.30
2023-01-03T00:04:20.196Z,3.63
2023-01-03T00:06:50.912Z,2.90
2023-01-03T00:09:21.703Z,3.37
2023-01-03T00:12:09.969Z,3.00
2023-01-03T00:14:42.310Z,2.87
2023-01-03T00:17:12.208Z,3.20
2023-01-03T00:19:44.942Z,2.97
2023-01-03T00:22:15.758Z,3.43
2023-01-03T00:24:44.818Z,3.33
2023-01-03T00:27:14.015Z,3.00
2023-01-03T00:29:42.857Z,2.70
2023-01-03T00:32:11.717Z,2.70
2023-01-03T00:34:41.529Z,2.80
2023-01-03T00:37:09.854Z,3.03
2023-01-03T00:39:38.165Z,2.70
2023-01-03T00:42:07.214Z,2.53
2023-01-03T00:44:35.478Z,3.00
2023-01-03T00:47:04.611Z,2.93
2023-01-03T00:49:32.873Z,2.70
2023-01-03T00:52:02.605Z,3.20
2023-01-03T00:54:31.018Z,2.33
2023-01-03T00:56:59.264Z,2.30
2023-01-03T00:59:27.614Z,2.80
2023-01-03T01:01:58.603Z,2.60
2023-01-03T01:04:30.142Z,2.60
2023-01-03T01:07:04.427Z,3.13
2023-01-03T01:09:37.260Z,3.13
2023-01-03T01:12:07.989Z,3.27
2023-01-03T01:14:36.324Z,3.10
2023-01-03T01:17:07.088Z,2.50
2023-01-03T01:19:38.434Z,2.83
2023-01-03T01:22:08.996Z,2.97
2023-01-03T01:24:37.505Z,2.60
2023-01-03T01:27:06.637Z,2.17
2023-01-03T01:29:35.369Z,2.50
2023-01-03T01:32:05.350Z,3.03
2023-01-03T01:34:34.551Z,2.67
2023-01-03T01:37:02.903Z,2.93
2023-01-03T01:39:32.511Z,2.57
2023-01-03T01:42:23.191Z,3.00
2023-01-03T01:44:57.534Z,2.70
2023-01-03T01:47:39.671Z,2.83
2023-01-03T01:50:25.769Z,2.77
2023-01-03T01:53:00.606Z,2.80
2023-01-03T01:55:37.982Z,3.13
2023-01-03T01:58:08.129Z,3.00
2023-01-03T02:00:38.412Z,3.10
2023-01-03T02:03:06.873Z,3.57
2023-01-03T02:05:40.455Z,3.33
2023-01-03T02:08:08.861Z,3.80
2023-01-03T02:11:11.031Z,3.47
2023-01-03T02:13:52.098Z,3.70
2023-01-03T02:16:48.181Z,3.60
2023-01-03T02:20:19.393Z,4.17
2023-01-03T02:23:22.363Z,3.73
2023-01-03T02:26:37.068Z,5.73
2023-01-03T02:29:47.545Z,3.70
2023-01-03T02:32:25.008Z,3.73
2023-01-03T02:35:05.527Z,3.80
2023-01-03T02:37:42.424Z,3.60
2023-01-03T02:40:21.417Z,3.87
2023-01-03T02:43:02.023Z,4.23
2023-01-03T02:45:53.195Z,4.07
2023-01-03T02:48:42.163Z,3.90
2023-01-03T02:51:18.908Z,4.10
2023-01-03T02:53:51.757Z,3.97
2023-01-03T02:56:27.192Z,4.63
2023-01-03T02:59:01.172Z,3.57
2023-01-03T03:01:31.919Z,3.57
2023-01-03T03:04:06.805Z,4.57
2023-01-03T03:06:46.739Z,4.47
2023-01-03T03:09:15.128Z,4.10
2023-01-03T03:12:03.115Z,4.13
2023-01-03T03:14:39.894Z,3.50
2023-01-03T03:17:14.517Z,4.43
2023-01-03T03:20:06.227Z,4.90
2023-01-03T03:23:00.954Z,4.87
2023-01-03T03:25:36.051Z,4.47
2023-01-03T03:28:25.848Z,4.70
2023-01-03T03:31:00.371Z,4.70
2023-01-03T03:33:34.317Z,4.27
2023-01-03T03:36:14.218Z,4.60
2023-01-03T03:38:46.171Z,4.67
2023-01-03T03:41:43.149Z,4.63
2023-01-03T03:44:51.743Z,5.10
2023-01-03T03:47:30.671Z,4.30
2023-01-03T03:50:08.109Z,4.70
2023-01-03T03:52:39.781Z,4.30
2023-01-03T03:55:16.456Z,4.70
2023-01-03T03:57:52.952Z,4.80
2023-01-03T04:00:27.583Z,4.30
2023-01-03T04:02:59.215Z,4.50
2023-01-03T04:05:32.233Z,4.13
2023-01-03T04:08:01.993Z,5.03
2023-01-03T04:10:35.687Z,4.33
2023-01-03T04:13:06.491Z,5.17
2023-01-03T04:15:34.806Z,5.27
2023-01-03T04:18:03.128Z,4.90
2023-01-03T04:20:31.703Z,5.70
2023-01-03T04:23:02.397Z,5.13
2023-01-03T04:25:30.776Z,5.20
2023-01-03T04:27:59.040Z,5.50
2023-01-03T04:30:27.398Z,6.00
2023-01-03T04:32:56.451Z,5.83
2023-01-03T04:35:25.181Z,6.30
2023-01-03T04:37:53.422Z,5.97
2023-01-03T04:40:23.168Z,5.93
2023-01-03T04:43:09.023Z,5.80
2023-01-03T04:45:37.431Z,6.23
2023-01-03T04:48:07.728Z,6.10
2023-01-03T04:50:36.183Z,5.97
2023-01-03T04:53:04.459Z,6.03
2023-01-03T04:55:34.059Z,6.20
2023-01-03T04:58:02.724Z,6.40
2023-01-03T05:00:30.921Z,5.67
2023-01-03T05:02:59.207Z,6.40
2023-01-03T05:05:27.446Z,5.77
2023-01-03T05:07:55.595Z,6.23
2023-01-03T05:10:23.874Z,6.23
2023-01-03T05:13:00.599Z,6.53
2023-01-03T05:15:30.243Z,7.07
2023-01-03T05:17:59.027Z,6.80
2023-01-03T05:20:44.973Z,7.33
2023-01-03T05:23:32.413Z,6.87
2023-01-03T05:26:02.238Z,6.67
2023-01-03T05:28:31.970Z,7.00
2023-01-03T05:31:02.105Z,6.53
2023-01-03T05:33:30.624Z,7.43
2023-01-03T05:36:00.743Z,7.87
2023-01-03T05:38:29.180Z,7.17
2023-01-03T05:40:57.457Z,7.53
2023-01-03T05:43:25.821Z,7.73
2023-01-03T05:45:55.685Z,7.17
2023-01-03T05:48:24.304Z,6.90
2023-01-03T05:50:52.900Z,6.97
2023-01-03T05:53:21.172Z,7.97
2023-01-03T05:55:49.437Z,8.13
2023-01-03T05:58:17.691Z,7.83
2023-01-03T06:00:45.937Z,7.80
2023-01-03T06:03:16.388Z,8.30
2023-01-03T06:05:50.142Z,7.30
2023-01-03T06:08:19.085Z,7.87
2023-01-03T06:10:47.634Z,8.17
2023-01-03T06:13:16.097Z,8.63
2023-01-03T06:16:04.267Z,7.80
2023-01-03T06:18:34.653Z,8.47
2023-01-03T06:21:04.517Z,7.83
2023-01-03T06:23:32.886Z,8.60
2023-01-03T06:26:04.723Z,7.80
2023-01-03T06:28:32.996Z,8.30
2023-01-03T06:31:01.269Z,8.20
2023-01-03T06:33:29.478Z,7.73
2023-01-03T06:36:03.311Z,7.87
2023-01-03T06:38:31.686Z,8.27
2023-01-03T06:41:00.544Z,8.17
2023-01-03T06:43:29.256Z,8.87
2023-01-03T06:46:17.729Z,8.37
2023-01-03T06:49:04.228Z,9.40
2023-01-03T06:51:51.942Z,8.13
2023-01-03T06:54:24.407Z,8.83
2023-01-03T06:56:53.970Z,8.67
2023-01-03T06:59:24.587Z,8.47
2023-01-03T07:01:54.782Z,7.83
2023-01-03T07:04:25.523Z,9.37
2023-01-03T07:06:55.205Z,8.17
2023-01-03T07:09:24.209Z,8.03
2023-01-03T07:11:52.772Z,8.70
2023-01-03T07:14:20.111Z,8.17
2023-01-03T07:16:49.818Z,7.87
2023-01-03T07:19:20.787Z,7.93
2023-01-03T07:21:49.185Z,7.87
2023-01-03T07:24:19.575Z,7.03
2023-01-03T07:26:47.793Z,7.23
2023-01-03T07:29:16.206Z,7.83
2023-01-03T07:31:44.664Z,7.00
2023-01-03T07:34:13.072Z,7.63
2023-01-03T07:36:41.480Z,7.23
2023-01-03T07:39:09.756Z,7.10
2023-01-03T07:41:56.973Z,7.40
2023-01-03T07:44:25.288Z,7.27
2023-01-03T07:46:53.566Z,7.20
2023-01-03T07:49:21.963Z,7.67
2023-01-03T07:51:50.204Z,7.27
2023-01-03T07:54:18.791Z,8.27
2023-01-03T07:56:48.629Z,7.30
2023-01-03T07:59:17.201Z,6.53
2023-01-03T08:01:45.591Z,7.43
2023-01-03T08:04:13.914Z,7.77
2023-01-03T08:06:42.143Z,7.47
2023-01-03T08:09:27.870Z,7.13
2023-01-03T08:12:15.374Z,7.93
2023-01-03T08:14:44.217Z,7.80
2023-01-03T08:17:12.572Z,7.87
2023-01-03T08:19:45.531Z,8.80
2023-01-03T08:22:14.362Z,8.67
2023-01-03T08:24:42.598Z,8.10
2023-01-03T08:27:12.254Z,9.07
2023-01-03T08:29:40.515Z,8.67
2023-01-03T08:32:08.931Z,8.83
2023-01-03T08:34:41.769Z,10.13
2023-01-03T08:37:13.439Z,10.03
2023-01-03T08:39:48.391Z,9.40
2023-01-03T08:42:21.047Z,9.90
2023-01-03T08:44:52.150Z,10.77
2023-01-03T08:47:22.081Z,11.13
2023-01-03T08:49:50.395Z,10.30
2023-01-03T08:52:18.666Z,10.80
2023-01-03T08:54:47.068Z,10.90
2023-01-03T08:57:16.823Z,11.33
2023-01-03T08:59:45.066Z,12.20
2023-01-03T09:02:13.650Z,11.13
2023-01-03T09:04:42.160Z,12.20
2023-01-03T09:07:10.754Z,11.20
2023-01-03T09:09:38.968Z,10.63
2023-01-03T09:12:07.579Z,11.20
2023-01-03T09:14:37.200Z,11.00
2023-01-03T09:17:05.491Z,10.73
2023-01-03T09:19:33.782Z,11.93
2023-01-03T09:22:02.199Z,11.23
2023-01-03T09:24:30.503Z,10.93
2023-01-03T09:26:58.772Z,10.93
2023-01-03T09:29:27.088Z,10.70
2023-01-03T09:31:56.843Z,10.27
2023-01-03T09:34:25.141Z,10.63
2023-01-03T09:36:53.419Z,10.60
2023-01-03T09:39:21.819Z,10.27
2023-01-03T09:42:11.155Z,10.13
2023-01-03T09:44:41.478Z,10.90
2023-01-03T09:47:18.926Z,10.90
2023-01-03T09:50:26.120Z,10.07
2023-01-03T09:52:54.252Z,10.27
2023-01-03T09:55:51.417Z,10.23
2023-01-03T09:58:37.232Z,10.07
2023-01-03T10:01:45.001Z,9.60
2023-01-03T10:04:47.755Z,10.37
2023-01-03T10:07:34.825Z,9.90
2023-01-03T10:10:16.528Z,9.67
2023-01-03T10:13:02.853Z,9.93
2023-01-03T10:15:46.974Z,10.37
2023-01-03T10:18:38.120Z,9.60
2023-01-03T10:21:17.183Z,9.47
2023-01-03T10:23:48.871Z,10.10
2023-01-03T10:26:17.091Z,10.83
2023-01-03T10:28:47.330Z,10.43
2023-01-03T10:31:38.662Z,11.00
2023-01-03T10:34:08.659Z,10.37
2023-01-03T10:36:38.285Z,9.77
2023-01-03T10:39:09.936Z,9.60
2023-01-03T10:41:45.359Z,10.00
2023-01-03T10:44:26.489Z,10.13
2023-01-03T10:46:57.820Z,10.07
2023-01-03T10:49:30.882Z,9.83
2023-01-03T10:52:04.958Z,10.20
2023-01-03T10:54:47.514Z,9.47
2023-01-03T10:57:38.273Z,9.57
2023-01-03T11:00:28.266Z,9.87
2023-01-03T11:03:03.137Z,9.03
2023-01-03T11:05:31.280Z,9.83
2023-01-03T11:08:03.504Z,9.70
2023-01-03T11:10:38.127Z,9.77
2023-01-03T11:13:23.843Z,9.57
2023-01-03T11:15:55.766Z,8.40
2023-01-03T11:18:26.605Z,8.73
2023-01-03T11:21:05.481Z,8.73
2023-01-03T11:23:49.984Z,9.10
2023-01-03T11:26:33.341Z,8.47
2023-01-03T11:29:40.186Z,7.90
2023-01-03T11:32:25.531Z,7.40
2023-01-03T11:35:45.181Z,7.37
2023-01-03T11:38:32.703Z,7.93
2023-01-03T11:41:20.717Z,7.40
2023-01-03T11:44:22.110Z,6.53
2023-01-03T11:47:08.907Z,6.53
2023-01-03T11:49:58.129Z,6.33
2023-01-03T11:52:39.500Z,5.90
2023-01-03T11:55:45.048Z,5.57
2023-01-03T11:58:58.303Z,6.83
2023-01-03T12:01:49.044Z,6.93
2023-01-03T12:04:28.296Z,6.63
2023-01-03T12:10:16.315Z,6.80
2023-01-03T12:13:08.443Z,6.50
2023-01-03T12:15:46.813Z,7.10
2023-01-03T12:18:26.728Z,6.60
2023-01-03T12:21:01.399Z,6.47
2023-01-03T12:23:41.610Z,7.23
2023-01-03T12:26:14.553Z,5.87
2023-01-03T12:28:50.284Z,6.33
2023-01-03T12:31:33.157Z,6.13
2023-01-03T12:34:19.578Z,6.00
2023-01-03T12:37:04.052Z,6.13
2023-01-03T12:39:43.566Z,6.30
2023-01-03T12:42:24.403Z,5.73
2023-01-03T12:45:03.164Z,6.37
2023-01-03T12:47:45.898Z,5.43
2023-01-03T12:50:21.663Z,5.13
2023-01-03T12:52:59.186Z,5.60
2023-01-03T12:55:44.077Z,4.93
2023-01-03T12:58:39.791Z,5.20
2023-01-03T13:01:15.624Z,5.47
2023-01-03T13:03:54.498Z,5.30
2023-01-03T13:06:29.443Z,6.13
2023-01-03T13:09:04.232Z,5.47
2023-01-03T13:11:39.141Z,6.67
2023-01-03T13:14:21.346Z,7.10
2023-01-03T13:16:51.136Z,7.53
2023-01-03T13:19:52.866Z,7.27
2023-01-03T13:22:52.017Z,7.13
2023-01-03T13:25:40.177Z,6.23
2023-01-03T13:28:34.246Z,6.50
2023-01-03T13:32:03.718Z,6.70
2023-01-03T13:34:36.745Z,6.40
2023-01-03T13:37:18.912Z,7.17
2023-01-03T13:40:23.682Z,7.03
2023-01-03T13:43:12.533Z,6.97
2023-01-03T13:45:58.896Z,6.97
2023-01-03T13:48:35.705Z,7.33
2023-01-03T13:51:49.728Z,6.60
2023-01-03T13:54:37.990Z,7.67
2023-01-03T13:57:30.444Z,7.80
2023-01-03T14:00:01.105Z,7.50
2023-01-03T14:03:35.074Z,6.97
2023-01-03T14:07:01.109Z,7.50
2023-01-03T14:10:07.011Z,6.70
2023-01-03T14:13:06.697Z,7.37
2023-01-03T14:15:35.889Z,7.80
2023-01-03T14:18:20.744Z,7.40
2023-01-03T14:20:53.384Z,6.80
2023-01-03T14:23:59.275Z,7.07
2023-01-03T14:26:20.352Z,8.00
2023-01-03T14:28:51.619Z,7.80
2023-01-03T14:31:23.448Z,8.03
2023-01-03T14:33:57.008Z,8.37
2023-01-03T14:36:25.547Z,7.63
2023-01-03T14:38:58.596Z,8.07
2023-01-03T14:41:33.379Z,7.30
2023-01-03T14:44:06.917Z,9.80
2023-01-03T14:46:37.866Z,9.40
2023-01-03T14:49:18.465Z,10.53
2023-01-03T14:51:47.263Z,9.37
2023-01-03T14:54:19.479Z,8.87
2023-01-03T14:56:50.100Z,8.77
2023-01-03T14:59:22.606Z,8.37
2023-01-03T15:01:51.812Z,8.73
2023-01-03T15:04:21.012Z,8.50
2023-01-03T15:07:06.350Z,7.43
2023-01-03T15:09:39.508Z,8.13
2023-01-03T15:12:09.308Z,8.03
2023-01-03T15:14:39.918Z,7.60
2023-01-03T15:17:19.262Z,7.83
2023-01-03T15:19:53.459Z,7.53
2023-01-03T15:22:25.862Z,7.93
2023-01-03T15:25:05.729Z,7.53
2023-01-03T15:27:45.349Z,7.70
2023-01-03T15:30:24.879Z,7.47
2023-01-03T15:33:01.025Z,8.27
2023-01-03T15:35:41.150Z,8.50
2023-01-03T15:38:21.834Z,8.47
2023-01-03T15:40:51.654Z,9.47
2023-01-03T15:43:26.993Z,11.03
2023-01-03T15:46:04.389Z,11.63
2023-01-03T15:48:35.953Z,11.83
2023-01-03T15:51:06.882Z,12.03
2023-01-03T15:53:43.701Z,13.07
2023-01-03T15:56:19.896Z,13.97
2023-01-03T15:58:52.651Z,13.70
2023-01-03T16:01:22.613Z,14.57
2023-01-03T16:03:52.175Z,15.90
2023-01-03T16:06:20.713Z,15.23
2023-01-03T16:08:49.278Z,17.03
2023-01-03T16:11:26.727Z,16.13
2023-01-03T16:14:05.121Z,16.83
2023-01-03T16:16:38.138Z,17.33
2023-01-03T16:19:08.135Z,16.73
2023-01-03T16:21:36.360Z,17.77
2023-01-03T16:24:04.871Z,17.53
2023-01-03T16:26:33.087Z,17.43
2023-01-03T16:29:02.625Z,18.50
2023-01-03T16:31:34.172Z,18.10
2023-01-03T16:34:06.108Z,16.47
2023-01-03T16:36:38.047Z,17.17
2023-01-03T16:39:14.356Z,18.43
2023-01-03T16:41:42.671Z,18.07
2023-01-03T16:44:12.241Z,18.43
2023-01-03T16:46:40.626Z,18.10
2023-01-03T16:49:11.868Z,18.37
2023-01-03T16:51:57.159Z,17.40
2023-01-03T16:54:26.224Z,18.40
2023-01-03T16:56:54.499Z,18.17
2023-01-03T16:59:24.682Z,18.50
2023-01-03T17:01:53.140Z,17.77
2023-01-03T17:04:21.404Z,19.07
2023-01-03T17:06:49.808Z,17.37
2023-01-03T17:09:23.643Z,17.37
2023-01-03T17:11:53.437Z,19.53
2023-01-03T17:14:24.040Z,19.63
2023-01-03T17:16:52.593Z,19.73
2023-01-03T17:20:02.240Z,18.17
2023-01-03T17:22:16.130Z,19.17
2023-01-03T17:24:45.223Z,19.20
2023-01-03T17:27:22.812Z,18.53
2023-01-03T17:30:02.843Z,19.67
2023-01-03T17:32:31.448Z,19.17
2023-01-03T17:34:59.715Z,19.03
2023-01-03T17:37:27.990Z,20.50
2023-01-03T17:40:00.682Z,20.43
2023-01-03T17:42:30.047Z,20.30
2023-01-03T17:45:17.219Z,18.97
2023-01-03T17:48:02.963Z,19.70
2023-01-03T17:50:33.506Z,20.67
2023-01-03T17:53:03.164Z,20.10
2023-01-03T17:55:32.324Z,20.73
2023-01-03T17:58:03.325Z,20.37
2023-01-03T18:00:34.205Z,20.87
2023-01-03T18:03:02.784Z,20.13
2023-01-03T18:05:32.302Z,21.50
2023-01-03T18:08:02.588Z,21.93
2023-01-03T18:10:41.779Z,21.73
2023-01-03T18:13:23.363Z,20.73
2023-01-03T18:15:54.573Z,21.57
2023-01-03T18:18:27.035Z,22.50
2023-01-03T18:20:56.593Z,22.53
2023-01-03T18:23:31.626Z,22.70
2023-01-03T18:26:04.519Z,22.53
2023-01-03T18:28:33.200Z,22.77
2023-01-03T18:31:02.977Z,22.33
2023-01-03T18:33:31.290Z,24.60
2023-01-03T18:36:01.013Z,28.57
2023-01-03T18:38:32.818Z,27.33
2023-01-03T18:41:05.331Z,24.77
2023-01-03T18:43:34.658Z,24.60
2023-01-03T18:46:04.744Z,23.87
2023-01-03T18:48:33.232Z,21.23
2023-01-03T18:51:01.434Z,21.50
2023-01-03T18:53:32.994Z,21.30
2023-01-03T18:56:02.872Z,22.27
2023-01-03T18:58:36.251Z,20.30
2023-01-03T19:01:07.491Z,20.17
2023-01-03T19:03:36.776Z,19.83
2023-01-03T19:06:20.020Z,20.27
2023-01-03T19:08:49.523Z,19.40
2023-01-03T19:11:23.458Z,20.70
2023-01-03T19:13:54.867Z,20.67
2023-01-03T19:16:27.242Z,20.17
2023-01-03T19:18:55.923Z,19.20
2023-01-03T19:21:25.728Z,19.60
2023-01-03T19:24:01.819Z,20.13
2023-01-03T19:26:34.417Z,20.33
2023-01-03T19:29:06.765Z,20.03
2023-01-03T19:31:43.303Z,18.43
2023-01-03T19:34:23.641Z,19.80
2023-01-03T19:36:52.419Z,18.10
2023-01-03T19:39:25.875Z,18.77
2023-01-03T19:42:15.892Z,19.67
2023-01-03T19:44:44.718Z,19.17
2023-01-03T19:47:18.014Z,18.90
2023-01-03T19:49:48.922Z,18.80
2023-01-03T19:52:19.129Z,17.83
2023-01-03T19:54:47.468Z,18.27
2023-01-03T19:57:22.842Z,18.80
2023-01-03T19:59:56.663Z,18.80
2023-01-03T20:02:41.366Z,18.60
2023-01-03T20:05:23.214Z,18.80
2023-01-03T20:07:52.211Z,18.27
2023-01-03T20:10:23.778Z,18.73
2023-01-03T20:12:58.055Z,18.80
2023-01-03T20:15:30.676Z,18.77
2023-01-03T20:18:00.829Z,18.37
2023-01-03T20:20:34.029Z,17.60
2023-01-03T20:23:08.115Z,18.93
2023-01-03T20:25:37.898Z,18.80
2023-01-03T20:28:07.499Z,18.10
2023-01-03T20:30:38.694Z,18.00
2023-01-03T20:33:08.373Z,17.77
2023-01-03T20:36:09.751Z,18.97
2023-01-03T20:38:28.200Z,16.87
2023-01-03T20:40:57.660Z,17.13
2023-01-03T20:43:26.705Z,16.10
2023-01-03T20:45:58.679Z,17.83
2023-01-03T20:48:28.847Z,15.30
2023-01-03T20:50:57.496Z,16.70
2023-01-03T20:53:28.125Z,16.67
2023-01-03T20:55:56.489Z,16.57
2023-01-03T20:58:26.384Z,16.33
2023-01-03T21:01:04.223Z,16.27
2023-01-03T21:03:36.748Z,17.90
2023-01-03T21:06:17.686Z,15.80
2023-01-03T21:08:55.028Z,16.50
2023-01-03T21:11:24.868Z,14.70
2023-01-03T21:13:53.339Z,15.73
2023-01-03T21:16:33.209Z,15.10
2023-01-03T21:19:12.451Z,15.20
2023-01-03T21:21:41.825Z,14.63
2023-01-03T21:24:12.363Z,15.57
2023-01-03T21:26:41.138Z,15.33
2023-01-03T21:29:09.722Z,14.90
2023-01-03T21:31:42.024Z,16.13
2023-01-03T21:34:19.083Z,15.07
2023-01-03T21:36:48.185Z,16.30
2023-01-03T21:39:16.563Z,14.20
2023-01-03T21:42:02.664Z,13.90
2023-01-03T21:44:30.947Z,13.57
2023-01-03T21:46:59.205Z,13.47
2023-01-03T21:49:28.838Z,13.40
2023-01-03T21:51:57.153Z,14.77
2023-01-03T21:54:25.646Z,13.90
2023-01-03T21:56:53.820Z,13.50
2023-01-03T21:59:22.184Z,12.70
2023-01-03T22:02:08.407Z,12.73
2023-01-03T22:04:38.161Z,13.10
2023-01-03T22:07:07.077Z,12.30
2023-01-03T22:09:53.090Z,12.43
2023-01-03T22:12:21.738Z,13.57
2023-01-03T22:14:50.216Z,11.57
2023-01-03T22:17:18.524Z,11.83
2023-01-03T22:19:48.223Z,13.03
2023-01-03T22:22:16.503Z,12.37
2023-01-03T22:24:44.791Z,12.23
2023-01-03T22:27:13.066Z,11.70
2023-01-03T22:29:41.387Z,11.93
2023-01-03T22:32:10.508Z,10.47
2023-01-03T22:34:39.478Z,10.40
2023-01-03T22:37:09.267Z,10.97
2023-01-03T22:39:37.593Z,10.73
2023-01-03T22:42:06.368Z,9.73
2023-01-03T22:44:34.992Z,11.37
2023-01-03T22:47:03.418Z,9.50
2023-01-03T22:49:32.088Z,9.20
2023-01-03T22:52:00.464Z,8.37
2023-01-03T22:54:30.243Z,8.60
2023-01-03T22:57:01.043Z,8.17
2023-01-03T22:59:30.286Z,8.03
2023-01-03T23:01:59.393Z,8.40
2023-01-03T23:04:28.305Z,7.97
2023-01-03T23:06:57.220Z,6.80
2023-01-03T23:09:25.756Z,6.83
2023-01-03T23:12:12.871Z,5.90
2023-01-03T23:14:41.207Z,5.90
2023-01-03T23:17:27.301Z,5.87
2023-01-03T23:19:55.656Z,5.00
2023-01-03T23:22:23.956Z,4.93
2023-01-03T23:24:52.182Z,4.73
2023-01-03T23:27:21.857Z,4.57
2023-01-03T23:29:50.222Z,4.47
2023-01-03T23:32:18.623Z,4.13
2023-01-03T23:34:46.887Z,4.43
2023-01-03T23:37:15.286Z,4.40
2023-01-03T23:39:44.123Z,3.60
2023-01-03T23:42:12.574Z,3.53
2023-01-03T23:44:42.370Z,3.67
2023-01-03T23:47:12.505Z,3.83
2023-01-03T23:49:41.376Z,3.93
2023-01-03T23:52:09.964Z,3.43
2023-01-03T23:54:38.274Z,3.70
2023-01-03T23:57:06.597Z,3.30
2023-01-03T23:59:35.072Z,3.10
